sensor_id;sensor_type;location;lat;lon;timestamp;P1;durP1;ratioP1;P2;durP2;ratioP2
817;SDS011;391;51.052;6.954;2022-08-04T00:00:32;4.60;;;1.93;;
817;SDS011;391;51.052;6.954;2022-08-04T00:02:43;3.50;;;1.50;;
817;SDS011;391;51.052;6.954;2022-08-04T00:04:56;2.00;;;1.70;;
817;SDS011;391;51.052;6.954;2022-08-04T00:07:07;4.10;;;1.90;;
817;SDS011;391;51.052;6.954;2022-08-04T00:09:19;3.10;;;1.70;;
817;SDS011;391;51.052;6.954;2022-08-04T00:11:31;1.47;;;1.37;;
817;SDS011;391;51.052;6.954;2022-08-04T00:13:36;2.00;;;1.50;;
817;SDS011;391;51.052;6.954;2022-08-04T00:16:03;1.93;;;1.70;;
817;SDS011;391;51.052;6.954;2022-08-04T00:18:09;2.37;;;1.80;;
817;SDS011;391;51.052;6.954;2022-08-04T00:20:17;3.10;;;1.80;;
817;SDS011;391;51.052;6.954;2022-08-04T00:22:25;4.87;;;1.60;;
817;SDS011;391;51.052;6.954;2022-08-04T00:24:32;4.17;;;1.50;;
817;SDS011;391;51.052;6.954;2022-08-04T00:26:37;2.60;;;1.63;;
817;SDS011;391;51.052;6.954;2022-08-04T00:28:42;2.20;;;1.80;;
817;SDS011;391;51.052;6.954;2022-08-04T00:30:46;1.90;;;1.50;;
817;SDS011;391;51.052;6.954;2022-08-04T00:32:51;2.77;;;1.43;;
817;SDS011;391;51.052;6.954;2022-08-04T00:34:54;2.33;;;1.50;;
817;SDS011;391;51.052;6.954;2022-08-04T00:37:00;4.93;;;4.43;;
817;SDS011;391;51.052;6.954;2022-08-04T00:39:03;3.13;;;2.50;;
817;SDS011;391;51.052;6.954;2022-08-04T00:41:12;2.80;;;2.50;;
817;SDS011;391;51.052;6.954;2022-08-04T00:43:27;3.53;;;1.90;;
817;SDS011;391;51.052;6.954;2022-08-04T00:45:43;3.03;;;2.30;;
817;SDS011;391;51.052;6.954;2022-08-04T00:48:21;3.53;;;2.30;;
817;SDS011;391;51.052;6.954;2022-08-04T00:50:38;2.57;;;1.67;;
817;SDS011;391;51.052;6.954;2022-08-04T00:52:52;2.73;;;2.10;;
817;SDS011;391;51.052;6.954;2022-08-04T00:55:09;2.30;;;1.60;;
817;SDS011;391;51.052;6.954;2022-08-04T00:57:35;2.10;;;1.67;;
817;SDS011;391;51.052;6.954;2022-08-04T00:59:55;3.37;;;2.07;;
817;SDS011;391;51.052;6.954;2022-08-04T01:02:10;1.77;;;1.33;;
817;SDS011;391;51.052;6.954;2022-08-04T01:04:35;3.70;;;2.70;;
817;SDS011;391;51.052;6.954;2022-08-04T01:07:03;3.00;;;1.80;;
817;SDS011;391;51.052;6.954;2022-08-04T01:09:32;1.73;;;1.63;;
817;SDS011;391;51.052;6.954;2022-08-04T01:11:48;2.37;;;1.50;;
817;SDS011;391;51.052;6.954;2022-08-04T01:14:15;1.97;;;1.57;;
817;SDS011;391;51.052;6.954;2022-08-04T01:16:31;2.13;;;1.67;;
817;SDS011;391;51.052;6.954;2022-08-04T01:18:41;1.67;;;1.57;;
817;SDS011;391;51.052;6.954;2022-08-04T01:21:01;3.33;;;2.60;;
817;SDS011;391;51.052;6.954;2022-08-04T01:23:34;3.10;;;2.10;;
817;SDS011;391;51.052;6.954;2022-08-04T01:26:09;2.83;;;1.73;;
817;SDS011;391;51.052;6.954;2022-08-04T01:29:04;3.23;;;1.50;;
817;SDS011;391;51.052;6.954;2022-08-04T01:31:12;3.93;;;2.33;;
817;SDS011;391;51.052;6.954;2022-08-04T01:33:23;4.17;;;1.90;;
817;SDS011;391;51.052;6.954;2022-08-04T01:35:53;2.10;;;1.43;;
817;SDS011;391;51.052;6.954;2022-08-04T01:38:00;2.67;;;1.83;;
817;SDS011;391;51.052;6.954;2022-08-04T01:40:22;3.40;;;1.70;;
817;SDS011;391;51.052;6.954;2022-08-04T01:42:30;2.47;;;1.83;;
817;SDS011;391;51.052;6.954;2022-08-04T01:44:38;2.83;;;1.57;;
817;SDS011;391;51.052;6.954;2022-08-04T01:46:43;3.33;;;1.60;;
817;SDS011;391;51.052;6.954;2022-08-04T01:48:52;1.90;;;1.67;;
817;SDS011;391;51.052;6.954;2022-08-04T01:50:58;2.10;;;1.87;;
817;SDS011;391;51.052;6.954;2022-08-04T01:53:06;1.67;;;1.57;;
817;SDS011;391;51.052;6.954;2022-08-04T01:55:11;2.30;;;1.80;;
817;SDS011;391;51.052;6.954;2022-08-04T01:57:16;4.37;;;1.70;;
817;SDS011;391;51.052;6.954;2022-08-04T01:59:41;3.77;;;1.57;;
817;SDS011;391;51.052;6.954;2022-08-04T02:01:47;3.80;;;2.00;;
817;SDS011;391;51.052;6.954;2022-08-04T02:03:51;2.23;;;1.70;;
817;SDS011;391;51.052;6.954;2022-08-04T02:06:17;2.10;;;1.90;;
817;SDS011;391;51.052;6.954;2022-08-04T02:08:34;2.30;;;1.73;;
817;SDS011;391;51.052;6.954;2022-08-04T02:10:52;2.00;;;1.80;;
817;SDS011;391;51.052;6.954;2022-08-04T02:13:09;2.83;;;1.93;;
817;SDS011;391;51.052;6.954;2022-08-04T02:15:23;1.87;;;1.60;;
817;SDS011;391;51.052;6.954;2022-08-04T02:17:30;1.57;;;1.40;;
817;SDS011;391;51.052;6.954;2022-08-04T02:22:17;2.60;;;1.87;;
817;SDS011;391;51.052;6.954;2022-08-04T02:24:27;1.63;;;1.43;;
817;SDS011;391;51.052;6.954;2022-08-04T02:26:34;3.20;;;2.10;;
817;SDS011;391;51.052;6.954;2022-08-04T02:28:45;2.87;;;2.17;;
817;SDS011;391;51.052;6.954;2022-08-04T02:30:55;3.97;;;3.57;;
817;SDS011;391;51.052;6.954;2022-08-04T02:33:11;2.37;;;2.17;;
817;SDS011;391;51.052;6.954;2022-08-04T02:35:22;2.40;;;2.20;;
817;SDS011;391;51.052;6.954;2022-08-04T02:37:28;2.47;;;1.70;;
817;SDS011;391;51.052;6.954;2022-08-04T02:39:34;2.57;;;2.00;;
817;SDS011;391;51.052;6.954;2022-08-04T02:41:50;2.93;;;2.00;;
817;SDS011;391;51.052;6.954;2022-08-04T02:43:55;2.53;;;1.60;;
817;SDS011;391;51.052;6.954;2022-08-04T02:46:01;3.40;;;2.47;;
817;SDS011;391;51.052;6.954;2022-08-04T02:48:19;2.67;;;1.87;;
817;SDS011;391;51.052;6.954;2022-08-04T02:50:33;3.20;;;2.30;;
817;SDS011;391;51.052;6.954;2022-08-04T02:52:39;3.37;;;3.07;;
817;SDS011;391;51.052;6.954;2022-08-04T02:54:46;2.07;;;1.60;;
817;SDS011;391;51.052;6.954;2022-08-04T02:56:55;2.90;;;1.60;;
817;SDS011;391;51.052;6.954;2022-08-04T02:59:03;2.90;;;2.10;;
817;SDS011;391;51.052;6.954;2022-08-04T03:01:09;2.33;;;2.13;;
817;SDS011;391;51.052;6.954;2022-08-04T03:03:15;4.43;;;2.00;;
817;SDS011;391;51.052;6.954;2022-08-04T03:05:27;3.00;;;2.20;;
817;SDS011;391;51.052;6.954;2022-08-04T03:08:14;4.20;;;2.37;;
817;SDS011;391;51.052;6.954;2022-08-04T03:15:46;4.13;;;1.90;;
817;SDS011;391;51.052;6.954;2022-08-04T03:21:06;2.20;;;1.97;;
817;SDS011;391;51.052;6.954;2022-08-04T03:26:09;3.47;;;2.47;;
817;SDS011;391;51.052;6.954;2022-08-04T03:28:45;3.40;;;2.50;;
817;SDS011;391;51.052;6.954;2022-08-04T03:33:49;3.43;;;2.70;;
817;SDS011;391;51.052;6.954;2022-08-04T03:36:29;3.40;;;3.07;;
817;SDS011;391;51.052;6.954;2022-08-04T03:39:13;2.70;;;2.50;;
817;SDS011;391;51.052;6.954;2022-08-04T03:41:47;2.93;;;2.30;;
817;SDS011;391;51.052;6.954;2022-08-04T03:47:03;3.30;;;3.00;;
817;SDS011;391;51.052;6.954;2022-08-04T03:49:47;3.97;;;3.20;;
817;SDS011;391;51.052;6.954;2022-08-04T03:52:20;3.00;;;2.57;;
817;SDS011;391;51.052;6.954;2022-08-04T03:57:48;2.87;;;2.63;;
817;SDS011;391;51.052;6.954;2022-08-04T04:00:08;4.23;;;2.90;;
817;SDS011;391;51.052;6.954;2022-08-04T04:02:26;3.20;;;2.63;;
817;SDS011;391;51.052;6.954;2022-08-04T04:04:51;3.80;;;3.30;;
817;SDS011;391;51.052;6.954;2022-08-04T04:07:18;3.63;;;2.80;;
817;SDS011;391;51.052;6.954;2022-08-04T04:10:06;2.67;;;2.43;;
817;SDS011;391;51.052;6.954;2022-08-04T04:12:34;3.47;;;3.17;;
817;SDS011;391;51.052;6.954;2022-08-04T04:14:57;3.77;;;2.80;;
817;SDS011;391;51.052;6.954;2022-08-04T04:17:29;3.03;;;2.63;;
817;SDS011;391;51.052;6.954;2022-08-04T04:20:02;3.50;;;3.20;;
817;SDS011;391;51.052;6.954;2022-08-04T04:22:35;2.53;;;2.33;;
817;SDS011;391;51.052;6.954;2022-08-04T04:25:02;3.67;;;3.27;;
817;SDS011;391;51.052;6.954;2022-08-04T04:27:15;3.03;;;2.77;;
817;SDS011;391;51.052;6.954;2022-08-04T04:32:03;3.80;;;3.13;;
817;SDS011;391;51.052;6.954;2022-08-04T04:34:18;3.33;;;3.03;;
817;SDS011;391;51.052;6.954;2022-08-04T04:36:33;3.10;;;2.80;;
817;SDS011;391;51.052;6.954;2022-08-04T04:38:51;3.20;;;2.90;;
817;SDS011;391;51.052;6.954;2022-08-04T04:41:07;3.70;;;2.93;;
817;SDS011;391;51.052;6.954;2022-08-04T04:43:33;2.70;;;2.50;;
817;SDS011;391;51.052;6.954;2022-08-04T04:46:02;5.07;;;2.60;;
817;SDS011;391;51.052;6.954;2022-08-04T04:48:11;3.90;;;3.43;;
817;SDS011;391;51.052;6.954;2022-08-04T04:50:31;4.10;;;3.10;;
817;SDS011;391;51.052;6.954;2022-08-04T04:52:44;2.40;;;2.20;;
817;SDS011;391;51.052;6.954;2022-08-04T04:54:52;2.80;;;2.60;;
817;SDS011;391;51.052;6.954;2022-08-04T04:57:06;2.27;;;2.07;;
817;SDS011;391;51.052;6.954;2022-08-04T04:59:16;2.80;;;2.30;;
817;SDS011;391;51.052;6.954;2022-08-04T05:04:00;2.90;;;2.60;;
817;SDS011;391;51.052;6.954;2022-08-04T05:06:33;4.00;;;2.57;;
817;SDS011;391;51.052;6.954;2022-08-04T05:09:06;6.53;;;3.17;;
817;SDS011;391;51.052;6.954;2022-08-04T05:13:57;3.43;;;2.00;;
817;SDS011;391;51.052;6.954;2022-08-04T05:16:24;3.07;;;2.47;;
817;SDS011;391;51.052;6.954;2022-08-04T05:18:35;3.03;;;2.60;;
817;SDS011;391;51.052;6.954;2022-08-04T05:20:42;2.40;;;2.20;;
817;SDS011;391;51.052;6.954;2022-08-04T05:22:53;3.40;;;2.60;;
817;SDS011;391;51.052;6.954;2022-08-04T05:25:05;3.40;;;2.70;;
817;SDS011;391;51.052;6.954;2022-08-04T05:27:15;3.80;;;2.90;;
817;SDS011;391;51.052;6.954;2022-08-04T05:29:26;4.00;;;2.70;;
817;SDS011;391;51.052;6.954;2022-08-04T05:31:37;3.20;;;2.90;;
817;SDS011;391;51.052;6.954;2022-08-04T05:33:45;3.43;;;3.00;;
817;SDS011;391;51.052;6.954;2022-08-04T05:35:53;4.00;;;3.00;;
817;SDS011;391;51.052;6.954;2022-08-04T05:38:21;2.67;;;2.43;;
817;SDS011;391;51.052;6.954;2022-08-04T05:40:29;3.80;;;3.07;;
817;SDS011;391;51.052;6.954;2022-08-04T05:42:34;2.70;;;2.50;;
817;SDS011;391;51.052;6.954;2022-08-04T05:44:42;3.67;;;2.83;;
817;SDS011;391;51.052;6.954;2022-08-04T05:46:53;3.23;;;2.93;;
817;SDS011;391;51.052;6.954;2022-08-04T05:48:58;4.13;;;3.73;;
817;SDS011;391;51.052;6.954;2022-08-04T05:51:02;3.93;;;3.50;;
817;SDS011;391;51.052;6.954;2022-08-04T05:53:08;5.63;;;3.60;;
817;SDS011;391;51.052;6.954;2022-08-04T05:55:13;4.90;;;3.30;;
817;SDS011;391;51.052;6.954;2022-08-04T05:57:39;3.50;;;3.13;;
817;SDS011;391;51.052;6.954;2022-08-04T05:59:44;5.43;;;3.37;;
817;SDS011;391;51.052;6.954;2022-08-04T06:01:48;5.93;;;3.50;;
817;SDS011;391;51.052;6.954;2022-08-04T06:03:57;4.20;;;3.23;;
817;SDS011;391;51.052;6.954;2022-08-04T06:06:11;5.70;;;3.73;;
817;SDS011;391;51.052;6.954;2022-08-04T06:08:17;4.90;;;3.80;;
817;SDS011;391;51.052;6.954;2022-08-04T06:10:20;3.90;;;3.60;;
817;SDS011;391;51.052;6.954;2022-08-04T06:12:34;3.63;;;3.20;;
817;SDS011;391;51.052;6.954;2022-08-04T06:14:40;5.00;;;4.20;;
817;SDS011;391;51.052;6.954;2022-08-04T06:16:47;4.63;;;3.97;;
817;SDS011;391;51.052;6.954;2022-08-04T06:18:55;3.33;;;3.03;;
817;SDS011;391;51.052;6.954;2022-08-04T06:21:23;4.10;;;3.80;;
817;SDS011;391;51.052;6.954;2022-08-04T06:23:30;7.70;;;3.57;;
817;SDS011;391;51.052;6.954;2022-08-04T06:25:59;5.57;;;3.90;;
817;SDS011;391;51.052;6.954;2022-08-04T06:28:04;4.73;;;4.20;;
817;SDS011;391;51.052;6.954;2022-08-04T06:30:09;8.73;;;5.50;;
817;SDS011;391;51.052;6.954;2022-08-04T06:32:16;8.90;;;5.00;;
817;SDS011;391;51.052;6.954;2022-08-04T06:34:37;10.13;;;7.00;;
817;SDS011;391;51.052;6.954;2022-08-04T06:36:41;8.83;;;7.80;;
817;SDS011;391;51.052;6.954;2022-08-04T06:38:46;10.00;;;5.73;;
817;SDS011;391;51.052;6.954;2022-08-04T06:40:59;4.90;;;4.40;;
817;SDS011;391;51.052;6.954;2022-08-04T06:43:05;5.60;;;4.23;;
817;SDS011;391;51.052;6.954;2022-08-04T06:45:10;4.60;;;3.97;;
817;SDS011;391;51.052;6.954;2022-08-04T06:47:17;4.73;;;4.10;;
817;SDS011;391;51.052;6.954;2022-08-04T06:49:22;3.83;;;3.53;;
817;SDS011;391;51.052;6.954;2022-08-04T06:51:28;6.57;;;3.70;;
817;SDS011;391;51.052;6.954;2022-08-04T06:53:47;4.80;;;4.40;;
817;SDS011;391;51.052;6.954;2022-08-04T06:55:51;4.13;;;3.73;;
817;SDS011;391;51.052;6.954;2022-08-04T06:57:56;5.90;;;3.97;;
817;SDS011;391;51.052;6.954;2022-08-04T07:00:05;5.00;;;4.30;;
817;SDS011;391;51.052;6.954;2022-08-04T07:02:13;7.13;;;5.00;;
817;SDS011;391;51.052;6.954;2022-08-04T07:04:20;9.00;;;4.30;;
817;SDS011;391;51.052;6.954;2022-08-04T07:06:23;5.43;;;4.87;;
817;SDS011;391;51.052;6.954;2022-08-04T07:08:27;5.53;;;5.03;;
817;SDS011;391;51.052;6.954;2022-08-04T07:10:31;6.37;;;4.70;;
817;SDS011;391;51.052;6.954;2022-08-04T07:12:35;4.67;;;4.20;;
817;SDS011;391;51.052;6.954;2022-08-04T07:14:40;6.23;;;4.77;;
817;SDS011;391;51.052;6.954;2022-08-04T07:16:44;4.27;;;3.73;;
817;SDS011;391;51.052;6.954;2022-08-04T07:18:50;5.00;;;3.87;;
817;SDS011;391;51.052;6.954;2022-08-04T07:20:55;5.53;;;4.33;;
817;SDS011;391;51.052;6.954;2022-08-04T07:22:59;5.60;;;3.70;;
817;SDS011;391;51.052;6.954;2022-08-04T07:25:07;5.13;;;4.13;;
817;SDS011;391;51.052;6.954;2022-08-04T07:27:14;4.80;;;3.87;;
817;SDS011;391;51.052;6.954;2022-08-04T07:29:39;7.20;;;5.40;;
817;SDS011;391;51.052;6.954;2022-08-04T07:31:43;8.87;;;4.63;;
817;SDS011;391;51.052;6.954;2022-08-04T07:33:47;4.17;;;3.77;;
817;SDS011;391;51.052;6.954;2022-08-04T07:36:12;4.30;;;3.67;;
817;SDS011;391;51.052;6.954;2022-08-04T07:38:16;4.63;;;3.77;;
817;SDS011;391;51.052;6.954;2022-08-04T07:40:28;5.37;;;3.43;;
817;SDS011;391;51.052;6.954;2022-08-04T07:42:32;5.60;;;4.07;;
817;SDS011;391;51.052;6.954;2022-08-04T07:44:36;6.07;;;4.13;;
817;SDS011;391;51.052;6.954;2022-08-04T07:46:40;3.40;;;3.10;;
817;SDS011;391;51.052;6.954;2022-08-04T07:48:44;3.60;;;3.30;;
817;SDS011;391;51.052;6.954;2022-08-04T07:50:49;5.40;;;4.17;;
817;SDS011;391;51.052;6.954;2022-08-04T07:52:55;7.53;;;4.20;;
817;SDS011;391;51.052;6.954;2022-08-04T07:55:18;8.47;;;5.00;;
817;SDS011;391;51.052;6.954;2022-08-04T07:57:22;5.10;;;4.10;;
817;SDS011;391;51.052;6.954;2022-08-04T07:59:42;3.90;;;3.57;;
817;SDS011;391;51.052;6.954;2022-08-04T08:01:51;3.73;;;3.40;;
817;SDS011;391;51.052;6.954;2022-08-04T08:03:56;4.67;;;3.20;;
817;SDS011;391;51.052;6.954;2022-08-04T08:06:00;4.40;;;4.00;;
817;SDS011;391;51.052;6.954;2022-08-04T08:08:24;4.57;;;3.77;;
817;SDS011;391;51.052;6.954;2022-08-04T08:10:28;10.37;;;9.37;;
817;SDS011;391;51.052;6.954;2022-08-04T08:12:32;6.93;;;6.23;;
817;SDS011;391;51.052;6.954;2022-08-04T08:14:52;4.43;;;4.03;;
817;SDS011;391;51.052;6.954;2022-08-04T08:16:57;8.23;;;4.70;;
817;SDS011;391;51.052;6.954;2022-08-04T08:19:03;6.17;;;4.10;;
817;SDS011;391;51.052;6.954;2022-08-04T08:21:07;5.97;;;4.50;;
817;SDS011;391;51.052;6.954;2022-08-04T08:23:11;3.90;;;3.57;;
817;SDS011;391;51.052;6.954;2022-08-04T08:25:16;5.60;;;4.30;;
817;SDS011;391;51.052;6.954;2022-08-04T08:27:21;8.60;;;3.87;;
817;SDS011;391;51.052;6.954;2022-08-04T08:29:25;4.70;;;3.70;;
817;SDS011;391;51.052;6.954;2022-08-04T08:31:28;7.00;;;4.57;;
817;SDS011;391;51.052;6.954;2022-08-04T08:33:52;5.73;;;4.00;;
817;SDS011;391;51.052;6.954;2022-08-04T08:35:57;4.80;;;3.93;;
817;SDS011;391;51.052;6.954;2022-08-04T08:38:20;4.63;;;4.23;;
817;SDS011;391;51.052;6.954;2022-08-04T08:40:34;4.27;;;3.77;;
817;SDS011;391;51.052;6.954;2022-08-04T08:42:46;5.20;;;4.70;;
817;SDS011;391;51.052;6.954;2022-08-04T08:45:50;5.90;;;3.30;;
817;SDS011;391;51.052;6.954;2022-08-04T08:48:18;4.10;;;3.80;;
817;SDS011;391;51.052;6.954;2022-08-04T08:50:38;5.70;;;4.83;;
817;SDS011;391;51.052;6.954;2022-08-04T08:53:13;3.10;;;2.90;;
817;SDS011;391;51.052;6.954;2022-08-04T08:55:39;4.23;;;3.83;;
817;SDS011;391;51.052;6.954;2022-08-04T09:00:27;4.23;;;3.93;;
817;SDS011;391;51.052;6.954;2022-08-04T09:02:54;3.63;;;3.33;;
817;SDS011;391;51.052;6.954;2022-08-04T09:05:28;5.77;;;4.23;;
817;SDS011;391;51.052;6.954;2022-08-04T09:07:52;5.20;;;4.03;;
817;SDS011;391;51.052;6.954;2022-08-04T09:10:08;5.77;;;5.20;;
817;SDS011;391;51.052;6.954;2022-08-04T09:12:24;6.80;;;4.30;;
817;SDS011;391;51.052;6.954;2022-08-04T09:14:33;7.07;;;4.53;;
817;SDS011;391;51.052;6.954;2022-08-04T09:16:44;5.70;;;3.40;;
817;SDS011;391;51.052;6.954;2022-08-04T09:18:55;4.33;;;3.93;;
817;SDS011;391;51.052;6.954;2022-08-04T09:21:09;3.87;;;3.47;;
817;SDS011;391;51.052;6.954;2022-08-04T09:23:21;4.90;;;3.70;;
817;SDS011;391;51.052;6.954;2022-08-04T09:25:32;4.00;;;3.33;;
817;SDS011;391;51.052;6.954;2022-08-04T09:27:45;4.33;;;3.93;;
817;SDS011;391;51.052;6.954;2022-08-04T09:29:55;4.60;;;3.70;;
817;SDS011;391;51.052;6.954;2022-08-04T09:32:07;4.73;;;4.23;;
817;SDS011;391;51.052;6.954;2022-08-04T09:34:19;5.83;;;3.27;;
817;SDS011;391;51.052;6.954;2022-08-04T09:36:31;5.03;;;3.63;;
817;SDS011;391;51.052;6.954;2022-08-04T09:38:41;2.93;;;2.70;;
817;SDS011;391;51.052;6.954;2022-08-04T09:40:54;4.40;;;3.27;;
817;SDS011;391;51.052;6.954;2022-08-04T09:43:31;3.93;;;3.63;;
817;SDS011;391;51.052;6.954;2022-08-04T09:46:01;3.20;;;2.90;;
817;SDS011;391;51.052;6.954;2022-08-04T09:48:10;3.70;;;3.40;;
817;SDS011;391;51.052;6.954;2022-08-04T09:50:29;3.53;;;2.93;;
817;SDS011;391;51.052;6.954;2022-08-04T09:52:39;4.20;;;3.30;;
817;SDS011;391;51.052;6.954;2022-08-04T09:54:50;4.03;;;3.73;;
817;SDS011;391;51.052;6.954;2022-08-04T09:57:03;4.00;;;3.60;;
817;SDS011;391;51.052;6.954;2022-08-04T09:59:18;3.77;;;3.20;;
817;SDS011;391;51.052;6.954;2022-08-04T10:01:27;3.60;;;2.63;;
817;SDS011;391;51.052;6.954;2022-08-04T10:03:33;3.93;;;3.27;;
817;SDS011;391;51.052;6.954;2022-08-04T10:05:43;5.60;;;3.80;;
817;SDS011;391;51.052;6.954;2022-08-04T10:10:33;3.67;;;2.60;;
817;SDS011;391;51.052;6.954;2022-08-04T10:12:51;3.30;;;2.93;;
817;SDS011;391;51.052;6.954;2022-08-04T10:15:14;3.47;;;2.77;;
817;SDS011;391;51.052;6.954;2022-08-04T10:19:55;4.10;;;3.53;;
817;SDS011;391;51.052;6.954;2022-08-04T10:22:10;4.47;;;3.00;;
817;SDS011;391;51.052;6.954;2022-08-04T10:24:35;3.30;;;3.00;;
817;SDS011;391;51.052;6.954;2022-08-04T10:26:51;4.70;;;3.10;;
817;SDS011;391;51.052;6.954;2022-08-04T10:29:01;3.70;;;3.40;;
817;SDS011;391;51.052;6.954;2022-08-04T10:31:08;5.60;;;3.27;;
817;SDS011;391;51.052;6.954;2022-08-04T10:33:20;4.70;;;2.70;;
817;SDS011;391;51.052;6.954;2022-08-04T10:35:28;2.60;;;2.40;;
817;SDS011;391;51.052;6.954;2022-08-04T10:37:38;4.67;;;2.80;;
817;SDS011;391;51.052;6.954;2022-08-04T10:40:03;2.90;;;2.50;;
817;SDS011;391;51.052;6.954;2022-08-04T10:42:30;3.57;;;2.40;;
817;SDS011;391;51.052;6.954;2022-08-04T10:44:41;2.80;;;2.60;;
817;SDS011;391;51.052;6.954;2022-08-04T10:47:03;2.23;;;2.00;;
817;SDS011;391;51.052;6.954;2022-08-04T10:49:20;2.50;;;2.30;;
817;SDS011;391;51.052;6.954;2022-08-04T10:51:27;3.00;;;2.17;;
817;SDS011;391;51.052;6.954;2022-08-04T10:53:57;2.80;;;2.60;;
817;SDS011;391;51.052;6.954;2022-08-04T10:56:05;2.93;;;2.63;;
817;SDS011;391;51.052;6.954;2022-08-04T10:58:17;3.20;;;2.30;;
817;SDS011;391;51.052;6.954;2022-08-04T11:00:23;2.63;;;2.43;;
817;SDS011;391;51.052;6.954;2022-08-04T11:02:31;3.17;;;1.83;;
817;SDS011;391;51.052;6.954;2022-08-04T11:04:40;3.60;;;1.93;;
817;SDS011;391;51.052;6.954;2022-08-04T11:06:47;2.20;;;1.97;;
817;SDS011;391;51.052;6.954;2022-08-04T11:08:54;3.27;;;2.20;;
817;SDS011;391;51.052;6.954;2022-08-04T11:11:02;11.80;;;2.90;;
817;SDS011;391;51.052;6.954;2022-08-04T11:13:13;3.73;;;1.90;;
817;SDS011;391;51.052;6.954;2022-08-04T11:15:32;4.43;;;2.10;;
817;SDS011;391;51.052;6.954;2022-08-04T11:17:42;3.30;;;2.40;;
817;SDS011;391;51.052;6.954;2022-08-04T11:19:52;3.73;;;2.70;;
817;SDS011;391;51.052;6.954;2022-08-04T11:22:24;3.27;;;2.90;;
817;SDS011;391;51.052;6.954;2022-08-04T11:24:31;3.30;;;2.10;;
817;SDS011;391;51.052;6.954;2022-08-04T11:26:40;3.40;;;2.33;;
817;SDS011;391;51.052;6.954;2022-08-04T11:28:50;3.40;;;1.80;;
817;SDS011;391;51.052;6.954;2022-08-04T11:31:06;3.83;;;2.40;;
817;SDS011;391;51.052;6.954;2022-08-04T11:33:18;4.60;;;3.23;;
817;SDS011;391;51.052;6.954;2022-08-04T11:35:26;6.30;;;2.30;;
817;SDS011;391;51.052;6.954;2022-08-04T11:37:35;4.00;;;2.20;;
817;SDS011;391;51.052;6.954;2022-08-04T11:39:49;4.57;;;3.20;;
817;SDS011;391;51.052;6.954;2022-08-04T11:42:00;2.40;;;2.20;;
817;SDS011;391;51.052;6.954;2022-08-04T11:44:10;3.47;;;2.17;;
817;SDS011;391;51.052;6.954;2022-08-04T11:46:21;3.73;;;2.77;;
817;SDS011;391;51.052;6.954;2022-08-04T11:48:31;5.23;;;2.43;;
817;SDS011;391;51.052;6.954;2022-08-04T11:50:40;3.80;;;2.30;;
817;SDS011;391;51.052;6.954;2022-08-04T11:52:54;5.10;;;2.20;;
817;SDS011;391;51.052;6.954;2022-08-04T11:55:02;3.03;;;2.10;;
817;SDS011;391;51.052;6.954;2022-08-04T11:57:07;5.87;;;2.30;;
817;SDS011;391;51.052;6.954;2022-08-04T11:59:12;2.73;;;2.30;;
817;SDS011;391;51.052;6.954;2022-08-04T12:01:17;2.67;;;2.17;;
817;SDS011;391;51.052;6.954;2022-08-04T12:03:30;4.33;;;2.17;;
817;SDS011;391;51.052;6.954;2022-08-04T12:05:40;11.50;;;3.53;;
817;SDS011;391;51.052;6.954;2022-08-04T12:07:50;4.47;;;2.40;;
817;SDS011;391;51.052;6.954;2022-08-04T12:10:06;7.33;;;2.90;;
817;SDS011;391;51.052;6.954;2022-08-04T12:12:17;4.53;;;1.87;;
817;SDS011;391;51.052;6.954;2022-08-04T12:14:29;6.10;;;2.60;;
817;SDS011;391;51.052;6.954;2022-08-04T12:16:44;2.23;;;2.03;;
817;SDS011;391;51.052;6.954;2022-08-04T12:18:56;2.87;;;2.63;;
817;SDS011;391;51.052;6.954;2022-08-04T12:21:05;2.70;;;2.10;;
817;SDS011;391;51.052;6.954;2022-08-04T12:23:18;4.67;;;2.37;;
817;SDS011;391;51.052;6.954;2022-08-04T12:25:25;4.37;;;2.53;;
817;SDS011;391;51.052;6.954;2022-08-04T12:27:36;3.53;;;2.50;;
817;SDS011;391;51.052;6.954;2022-08-04T12:29:44;3.40;;;3.10;;
817;SDS011;391;51.052;6.954;2022-08-04T12:32:10;3.80;;;2.70;;
817;SDS011;391;51.052;6.954;2022-08-04T12:34:24;4.00;;;2.83;;
817;SDS011;391;51.052;6.954;2022-08-04T12:36:34;3.27;;;2.43;;
817;SDS011;391;51.052;6.954;2022-08-04T12:38:43;2.50;;;2.10;;
817;SDS011;391;51.052;6.954;2022-08-04T12:40:52;4.20;;;2.90;;
817;SDS011;391;51.052;6.954;2022-08-04T12:43:01;2.33;;;2.13;;
817;SDS011;391;51.052;6.954;2022-08-04T12:45:08;2.40;;;2.20;;
817;SDS011;391;51.052;6.954;2022-08-04T12:47:13;2.90;;;2.27;;
817;SDS011;391;51.052;6.954;2022-08-04T12:49:30;2.27;;;2.07;;
817;SDS011;391;51.052;6.954;2022-08-04T12:51:37;3.23;;;2.73;;
817;SDS011;391;51.052;6.954;2022-08-04T12:54:02;2.90;;;2.20;;
817;SDS011;391;51.052;6.954;2022-08-04T12:56:08;2.60;;;2.40;;
817;SDS011;391;51.052;6.954;2022-08-04T12:58:16;3.63;;;2.43;;
817;SDS011;391;51.052;6.954;2022-08-04T13:00:41;3.37;;;3.07;;
817;SDS011;391;51.052;6.954;2022-08-04T13:02:46;4.13;;;2.20;;
817;SDS011;391;51.052;6.954;2022-08-04T13:04:52;6.37;;;2.43;;
817;SDS011;391;51.052;6.954;2022-08-04T13:06:59;2.80;;;2.30;;
817;SDS011;391;51.052;6.954;2022-08-04T13:09:09;4.13;;;2.13;;
817;SDS011;391;51.052;6.954;2022-08-04T13:11:19;2.63;;;1.87;;
817;SDS011;391;51.052;6.954;2022-08-04T13:13:26;2.50;;;2.20;;
817;SDS011;391;51.052;6.954;2022-08-04T13:15:33;2.10;;;1.90;;
817;SDS011;391;51.052;6.954;2022-08-04T13:17:49;2.50;;;2.30;;
817;SDS011;391;51.052;6.954;2022-08-04T13:19:59;2.63;;;2.43;;
817;SDS011;391;51.052;6.954;2022-08-04T13:22:03;3.03;;;2.37;;
817;SDS011;391;51.052;6.954;2022-08-04T13:24:08;4.60;;;2.67;;
817;SDS011;391;51.052;6.954;2022-08-04T13:26:34;3.93;;;2.47;;
817;SDS011;391;51.052;6.954;2022-08-04T13:28:57;2.70;;;2.10;;
817;SDS011;391;51.052;6.954;2022-08-04T13:31:18;3.10;;;2.50;;
817;SDS011;391;51.052;6.954;2022-08-04T13:33:27;3.63;;;2.73;;
817;SDS011;391;51.052;6.954;2022-08-04T13:35:33;3.17;;;2.87;;
817;SDS011;391;51.052;6.954;2022-08-04T13:37:57;4.93;;;3.10;;
817;SDS011;391;51.052;6.954;2022-08-04T13:40:02;3.47;;;2.57;;
817;SDS011;391;51.052;6.954;2022-08-04T13:42:08;3.50;;;2.90;;
817;SDS011;391;51.052;6.954;2022-08-04T13:44:14;2.97;;;2.37;;
817;SDS011;391;51.052;6.954;2022-08-04T13:46:22;2.90;;;2.60;;
817;SDS011;391;51.052;6.954;2022-08-04T13:48:30;4.10;;;3.30;;
817;SDS011;391;51.052;6.954;2022-08-04T13:50:36;4.53;;;2.73;;
817;SDS011;391;51.052;6.954;2022-08-04T13:52:41;4.57;;;2.37;;
817;SDS011;391;51.052;6.954;2022-08-04T13:54:46;4.70;;;2.87;;
817;SDS011;391;51.052;6.954;2022-08-04T13:56:56;3.47;;;3.00;;
817;SDS011;391;51.052;6.954;2022-08-04T13:59:02;2.80;;;2.60;;
817;SDS011;391;51.052;6.954;2022-08-04T14:01:15;2.90;;;2.40;;
817;SDS011;391;51.052;6.954;2022-08-04T14:03:38;4.23;;;2.53;;
817;SDS011;391;51.052;6.954;2022-08-04T14:08:26;4.53;;;2.60;;
817;SDS011;391;51.052;6.954;2022-08-04T14:10:32;3.20;;;2.87;;
817;SDS011;391;51.052;6.954;2022-08-04T14:12:42;3.50;;;2.70;;
817;SDS011;391;51.052;6.954;2022-08-04T14:14:49;3.07;;;2.70;;
817;SDS011;391;51.052;6.954;2022-08-04T14:16:54;3.03;;;2.73;;
817;SDS011;391;51.052;6.954;2022-08-04T14:18:59;4.13;;;2.97;;
817;SDS011;391;51.052;6.954;2022-08-04T14:21:04;2.67;;;2.47;;
817;SDS011;391;51.052;6.954;2022-08-04T14:23:10;7.07;;;2.80;;
817;SDS011;391;51.052;6.954;2022-08-04T14:25:14;3.17;;;2.23;;
817;SDS011;391;51.052;6.954;2022-08-04T14:27:19;6.93;;;4.33;;
817;SDS011;391;51.052;6.954;2022-08-04T14:29:23;3.97;;;2.73;;
817;SDS011;391;51.052;6.954;2022-08-04T14:31:30;3.00;;;2.70;;
817;SDS011;391;51.052;6.954;2022-08-04T14:33:35;3.20;;;2.97;;
817;SDS011;391;51.052;6.954;2022-08-04T14:36:00;2.80;;;2.60;;
817;SDS011;391;51.052;6.954;2022-08-04T14:38:06;2.73;;;2.53;;
817;SDS011;391;51.052;6.954;2022-08-04T14:40:12;3.90;;;2.40;;
817;SDS011;391;51.052;6.954;2022-08-04T14:42:42;6.17;;;3.97;;
817;SDS011;391;51.052;6.954;2022-08-04T14:44:57;3.77;;;2.67;;
817;SDS011;391;51.052;6.954;2022-08-04T14:47:01;3.80;;;2.20;;
817;SDS011;391;51.052;6.954;2022-08-04T14:49:15;2.53;;;2.27;;
817;SDS011;391;51.052;6.954;2022-08-04T14:51:19;2.57;;;2.20;;
817;SDS011;391;51.052;6.954;2022-08-04T14:53:37;2.77;;;2.50;;